SVRA weather

Río de Agua Airport
Sucre, Venezuela

Public forecast

Using degrees Celsius for public forecast. Weather courtesy of forecast.io.

Closest aviation weather report (METAR) to Río de Agua Airport

Report is more than 6 hours old.

Closest report is General Francisco Bermúdez Airport, 16.8 nm (31.0 km) WNW. Retrieved 2017/11/23 16:00 UTC (2 years ago):

SVCP 231600Z NI

Closest aviation forecast (TAF) to Río de Agua Airport

Closest forecast is Del Caribe Santiago Mariño International Airport, 61.0 nm (113.0 km) WNW. Retrieved 2019/10/22 12:03 UTC (4 hours ago):

TAF SVMG 221000Z 2212/2312 09004KT 9999 FEW010 TX33/18Z TN24/08Z BECMG 2214/2018 09011KT SCT010